sensor_id;sensor_type;location;lat;lon;timestamp;temperature;humidity
5226;DHT22;2632;51.666;7.146;2022-10-31T00:01:10;19.10;91.70
5226;DHT22;2632;51.666;7.146;2022-10-31T00:03:36;19.10;91.70
5226;DHT22;2632;51.666;7.146;2022-10-31T00:06:03;19.10;91.70
5226;DHT22;2632;51.666;7.146;2022-10-31T00:08:29;19.10;91.70
5226;DHT22;2632;51.666;7.146;2022-10-31T00:10:56;19.10;91.70
5226;DHT22;2632;51.666;7.146;2022-10-31T00:13:23;19.10;91.70
5226;DHT22;2632;51.666;7.146;2022-10-31T00:15:49;19.10;91.70
5226;DHT22;2632;51.666;7.146;2022-10-31T00:18:16;19.10;91.70
5226;DHT22;2632;51.666;7.146;2022-10-31T00:20:42;19.10;91.70
5226;DHT22;2632;51.666;7.146;2022-10-31T00:23:09;19.10;91.70
5226;DHT22;2632;51.666;7.146;2022-10-31T00:25:38;19.10;91.90
5226;DHT22;2632;51.666;7.146;2022-10-31T00:28:07;19.10;91.70
5226;DHT22;2632;51.666;7.146;2022-10-31T00:30:33;19.10;91.70
5226;DHT22;2632;51.666;7.146;2022-10-31T00:33:02;19.10;91.70
5226;DHT22;2632;51.666;7.146;2022-10-31T00:35:29;19.10;91.70
5226;DHT22;2632;51.666;7.146;2022-10-31T00:37:55;19.10;91.70
5226;DHT22;2632;51.666;7.146;2022-10-31T00:40:22;19.10;91.70
5226;DHT22;2632;51.666;7.146;2022-10-31T00:42:49;19.10;91.70
5226;DHT22;2632;51.666;7.146;2022-10-31T00:45:15;19.10;91.70
5226;DHT22;2632;51.666;7.146;2022-10-31T00:47:42;19.10;91.70
5226;DHT22;2632;51.666;7.146;2022-10-31T00:50:08;19.10;91.70
5226;DHT22;2632;51.666;7.146;2022-10-31T00:52:35;19.10;91.80
5226;DHT22;2632;51.666;7.146;2022-10-31T00:55:02;19.10;91.70
5226;DHT22;2632;51.666;7.146;2022-10-31T00:57:28;19.10;91.70
5226;DHT22;2632;51.666;7.146;2022-10-31T00:59:55;19.10;91.70
5226;DHT22;2632;51.666;7.146;2022-10-31T01:02:21;19.10;91.70
5226;DHT22;2632;51.666;7.146;2022-10-31T01:04:48;19.10;91.70
5226;DHT22;2632;51.666;7.146;2022-10-31T01:07:15;19.10;91.70
5226;DHT22;2632;51.666;7.146;2022-10-31T01:09:41;19.10;91.70
5226;DHT22;2632;51.666;7.146;2022-10-31T01:12:08;19.10;91.80
5226;DHT22;2632;51.666;7.146;2022-10-31T01:14:35;19.10;91.80
5226;DHT22;2632;51.666;7.146;2022-10-31T01:17:01;19.00;91.70
5226;DHT22;2632;51.666;7.146;2022-10-31T01:19:28;19.10;91.80
5226;DHT22;2632;51.666;7.146;2022-10-31T01:21:55;19.10;91.80
5226;DHT22;2632;51.666;7.146;2022-10-31T01:24:22;19.10;91.80
5226;DHT22;2632;51.666;7.146;2022-10-31T01:26:48;19.10;91.80
5226;DHT22;2632;51.666;7.146;2022-10-31T01:29:15;19.10;91.80
5226;DHT22;2632;51.666;7.146;2022-10-31T01:31:41;19.10;91.80
5226;DHT22;2632;51.666;7.146;2022-10-31T01:34:13;19.10;91.80
5226;DHT22;2632;51.666;7.146;2022-10-31T01:36:40;19.00;91.70
5226;DHT22;2632;51.666;7.146;2022-10-31T01:39:10;19.10;91.80
5226;DHT22;2632;51.666;7.146;2022-10-31T01:41:43;19.00;91.70
5226;DHT22;2632;51.666;7.146;2022-10-31T01:52:14;19.10;91.80
5226;DHT22;2632;51.666;7.146;2022-10-31T01:54:47;19.10;91.80
5226;DHT22;2632;51.666;7.146;2022-10-31T01:57:15;19.10;91.80
5226;DHT22;2632;51.666;7.146;2022-10-31T01:59:46;19.10;91.80
5226;DHT22;2632;51.666;7.146;2022-10-31T02:02:15;19.10;91.80
5226;DHT22;2632;51.666;7.146;2022-10-31T02:04:43;19.10;91.80
5226;DHT22;2632;51.666;7.146;2022-10-31T02:07:23;19.00;91.70
5226;DHT22;2632;51.666;7.146;2022-10-31T02:09:52;19.10;91.80
5226;DHT22;2632;51.666;7.146;2022-10-31T02:12:20;19.10;91.80
5226;DHT22;2632;51.666;7.146;2022-10-31T02:14:47;19.10;91.80
5226;DHT22;2632;51.666;7.146;2022-10-31T02:17:14;19.00;91.80
5226;DHT22;2632;51.666;7.146;2022-10-31T02:28:19;19.00;91.80
5226;DHT22;2632;51.666;7.146;2022-10-31T02:33:46;19.10;91.80
5226;DHT22;2632;51.666;7.146;2022-10-31T02:36:37;19.00;91.80
5226;DHT22;2632;51.666;7.146;2022-10-31T02:39:53;19.00;91.80
5226;DHT22;2632;51.666;7.146;2022-10-31T02:42:34;19.10;91.80
5226;DHT22;2632;51.666;7.146;2022-10-31T02:47:41;19.00;91.80
5226;DHT22;2632;51.666;7.146;2022-10-31T02:50:14;19.00;91.80
5226;DHT22;2632;51.666;7.146;2022-10-31T02:52:42;19.00;91.80
5226;DHT22;2632;51.666;7.146;2022-10-31T02:58:05;19.00;91.80
5226;DHT22;2632;51.666;7.146;2022-10-31T03:00:40;19.10;91.80
5226;DHT22;2632;51.666;7.146;2022-10-31T03:03:14;19.00;91.80
5226;DHT22;2632;51.666;7.146;2022-10-31T03:06:03;19.00;91.80
5226;DHT22;2632;51.666;7.146;2022-10-31T03:09:01;19.00;91.80
5226;DHT22;2632;51.666;7.146;2022-10-31T03:11:34;19.00;91.80
5226;DHT22;2632;51.666;7.146;2022-10-31T03:14:06;19.00;91.80
5226;DHT22;2632;51.666;7.146;2022-10-31T03:16:47;19.10;91.80
5226;DHT22;2632;51.666;7.146;2022-10-31T03:19:31;19.00;91.80
5226;DHT22;2632;51.666;7.146;2022-10-31T03:22:03;19.00;91.80
5226;DHT22;2632;51.666;7.146;2022-10-31T03:24:35;19.00;91.80
5226;DHT22;2632;51.666;7.146;2022-10-31T03:27:04;19.00;91.80
5226;DHT22;2632;51.666;7.146;2022-10-31T03:29:34;19.00;91.80
5226;DHT22;2632;51.666;7.146;2022-10-31T03:32:08;19.00;91.80
5226;DHT22;2632;51.666;7.146;2022-10-31T03:34:41;19.00;91.80
5226;DHT22;2632;51.666;7.146;2022-10-31T03:37:11;19.00;91.80
5226;DHT22;2632;51.666;7.146;2022-10-31T03:39:41;19.10;91.80
5226;DHT22;2632;51.666;7.146;2022-10-31T03:42:13;19.00;91.80
5226;DHT22;2632;51.666;7.146;2022-10-31T03:44:43;19.00;91.80
5226;DHT22;2632;51.666;7.146;2022-10-31T03:47:12;19.00;91.80
5226;DHT22;2632;51.666;7.146;2022-10-31T03:49:39;19.00;91.80
5226;DHT22;2632;51.666;7.146;2022-10-31T03:54:45;19.00;91.90
5226;DHT22;2632;51.666;7.146;2022-10-31T04:00:22;18.90;91.90
5226;DHT22;2632;51.666;7.146;2022-10-31T04:02:49;19.00;91.90
5226;DHT22;2632;51.666;7.146;2022-10-31T04:05:17;18.90;91.90
5226;DHT22;2632;51.666;7.146;2022-10-31T04:07:46;18.90;91.90
5226;DHT22;2632;51.666;7.146;2022-10-31T04:10:15;18.90;91.90
5226;DHT22;2632;51.666;7.146;2022-10-31T04:12:45;18.90;92.00
5226;DHT22;2632;51.666;7.146;2022-10-31T04:15:15;18.90;91.90
5226;DHT22;2632;51.666;7.146;2022-10-31T04:17:44;18.90;91.90
5226;DHT22;2632;51.666;7.146;2022-10-31T04:20:15;18.90;91.90
5226;DHT22;2632;51.666;7.146;2022-10-31T04:22:42;19.00;91.90
5226;DHT22;2632;51.666;7.146;2022-10-31T04:25:09;19.00;91.90
5226;DHT22;2632;51.666;7.146;2022-10-31T04:27:35;19.00;91.90
5226;DHT22;2632;51.666;7.146;2022-10-31T04:30:02;19.00;91.90
5226;DHT22;2632;51.666;7.146;2022-10-31T04:32:29;19.00;91.90
5226;DHT22;2632;51.666;7.146;2022-10-31T04:34:55;19.00;91.90
5226;DHT22;2632;51.666;7.146;2022-10-31T04:37:22;19.00;91.80
5226;DHT22;2632;51.666;7.146;2022-10-31T04:39:48;19.00;91.80
5226;DHT22;2632;51.666;7.146;2022-10-31T04:42:15;19.00;91.80
5226;DHT22;2632;51.666;7.146;2022-10-31T04:44:41;19.00;91.80
5226;DHT22;2632;51.666;7.146;2022-10-31T04:47:08;19.00;91.80
5226;DHT22;2632;51.666;7.146;2022-10-31T04:49:34;19.00;91.80
5226;DHT22;2632;51.666;7.146;2022-10-31T04:52:01;19.00;91.80
5226;DHT22;2632;51.666;7.146;2022-10-31T04:54:27;19.00;91.80
5226;DHT22;2632;51.666;7.146;2022-10-31T04:56:54;19.00;91.80
5226;DHT22;2632;51.666;7.146;2022-10-31T04:59:21;19.00;91.80
5226;DHT22;2632;51.666;7.146;2022-10-31T05:01:47;19.00;91.90
5226;DHT22;2632;51.666;7.146;2022-10-31T05:04:14;19.00;91.80
5226;DHT22;2632;51.666;7.146;2022-10-31T05:06:40;19.00;91.80
5226;DHT22;2632;51.666;7.146;2022-10-31T05:09:07;19.00;91.80
5226;DHT22;2632;51.666;7.146;2022-10-31T05:11:34;19.00;91.90
5226;DHT22;2632;51.666;7.146;2022-10-31T05:14:00;19.00;91.90
5226;DHT22;2632;51.666;7.146;2022-10-31T05:16:28;19.00;91.90
5226;DHT22;2632;51.666;7.146;2022-10-31T05:18:54;19.00;91.90
5226;DHT22;2632;51.666;7.146;2022-10-31T05:21:21;19.00;91.90
5226;DHT22;2632;51.666;7.146;2022-10-31T05:23:47;19.00;92.10
5226;DHT22;2632;51.666;7.146;2022-10-31T05:26:14;17.90;87.30
5226;DHT22;2632;51.666;7.146;2022-10-31T05:28:40;16.70;90.20
5226;DHT22;2632;51.666;7.146;2022-10-31T05:31:07;16.20;91.20
5226;DHT22;2632;51.666;7.146;2022-10-31T05:33:33;16.00;91.60
5226;DHT22;2632;51.666;7.146;2022-10-31T05:36:00;15.70;91.60
5226;DHT22;2632;51.666;7.146;2022-10-31T05:38:27;15.40;92.30
5226;DHT22;2632;51.666;7.146;2022-10-31T05:40:56;15.40;92.40
5226;DHT22;2632;51.666;7.146;2022-10-31T05:43:29;15.40;92.40
5226;DHT22;2632;51.666;7.146;2022-10-31T05:45:56;15.10;92.60
5226;DHT22;2632;51.666;7.146;2022-10-31T05:48:22;14.90;92.70
5226;DHT22;2632;51.666;7.146;2022-10-31T05:50:49;14.80;93.00
5226;DHT22;2632;51.666;7.146;2022-10-31T05:53:16;14.80;93.10
5226;DHT22;2632;51.666;7.146;2022-10-31T05:55:43;14.90;93.00
5226;DHT22;2632;51.666;7.146;2022-10-31T05:58:10;14.90;92.80
5226;DHT22;2632;51.666;7.146;2022-10-31T06:00:38;14.80;93.00
5226;DHT22;2632;51.666;7.146;2022-10-31T06:03:07;14.60;93.20
5226;DHT22;2632;51.666;7.146;2022-10-31T06:05:34;14.50;93.20
5226;DHT22;2632;51.666;7.146;2022-10-31T06:08:01;14.50;93.10
5226;DHT22;2632;51.666;7.146;2022-10-31T06:10:29;14.40;93.30
5226;DHT22;2632;51.666;7.146;2022-10-31T06:12:56;14.30;93.40
5226;DHT22;2632;51.666;7.146;2022-10-31T06:15:22;14.30;93.60
5226;DHT22;2632;51.666;7.146;2022-10-31T06:18:04;14.40;93.70
5226;DHT22;2632;51.666;7.146;2022-10-31T06:20:32;14.60;93.60
5226;DHT22;2632;51.666;7.146;2022-10-31T06:22:59;15.30;93.10
5226;DHT22;2632;51.666;7.146;2022-10-31T06:25:27;15.80;92.40
5226;DHT22;2632;51.666;7.146;2022-10-31T06:27:54;16.30;91.90
5226;DHT22;2632;51.666;7.146;2022-10-31T06:30:21;16.60;91.50
5226;DHT22;2632;51.666;7.146;2022-10-31T06:32:47;16.80;91.20
5226;DHT22;2632;51.666;7.146;2022-10-31T06:35:15;17.00;90.90
5226;DHT22;2632;51.666;7.146;2022-10-31T06:37:42;17.10;90.70
5226;DHT22;2632;51.666;7.146;2022-10-31T06:40:13;17.20;90.70
5226;DHT22;2632;51.666;7.146;2022-10-31T06:42:40;17.20;90.60
5226;DHT22;2632;51.666;7.146;2022-10-31T06:45:06;17.30;90.90
5226;DHT22;2632;51.666;7.146;2022-10-31T06:47:33;17.40;88.60
5226;DHT22;2632;51.666;7.146;2022-10-31T06:50:11;16.20;90.10
5226;DHT22;2632;51.666;7.146;2022-10-31T06:52:37;15.50;91.20
5226;DHT22;2632;51.666;7.146;2022-10-31T06:55:04;15.40;92.00
5226;DHT22;2632;51.666;7.146;2022-10-31T06:57:31;15.90;91.80
5226;DHT22;2632;51.666;7.146;2022-10-31T06:59:57;16.30;91.40
5226;DHT22;2632;51.666;7.146;2022-10-31T07:04:51;16.80;90.80
5226;DHT22;2632;51.666;7.146;2022-10-31T07:07:17;17.00;90.60
5226;DHT22;2632;51.666;7.146;2022-10-31T07:09:47;16.40;90.10
5226;DHT22;2632;51.666;7.146;2022-10-31T07:12:15;15.80;90.90
5226;DHT22;2632;51.666;7.146;2022-10-31T07:14:42;15.40;91.60
5226;DHT22;2632;51.666;7.146;2022-10-31T07:19:35;16.10;91.50
5226;DHT22;2632;51.666;7.146;2022-10-31T07:22:02;16.40;91.10
5226;DHT22;2632;51.666;7.146;2022-10-31T07:24:28;16.70;90.70
5226;DHT22;2632;51.666;7.146;2022-10-31T07:26:56;16.90;90.50
5226;DHT22;2632;51.666;7.146;2022-10-31T07:29:23;17.10;90.30
5226;DHT22;2632;51.666;7.146;2022-10-31T07:31:49;17.20;90.20
5226;DHT22;2632;51.666;7.146;2022-10-31T07:34:16;17.20;90.10
5226;DHT22;2632;51.666;7.146;2022-10-31T07:36:42;17.30;90.10
5226;DHT22;2632;51.666;7.146;2022-10-31T07:39:09;17.30;90.00
5226;DHT22;2632;51.666;7.146;2022-10-31T07:44:03;17.40;90.00
5226;DHT22;2632;51.666;7.146;2022-10-31T07:48:56;17.50;89.90
5226;DHT22;2632;51.666;7.146;2022-10-31T07:51:23;17.50;89.90
5226;DHT22;2632;51.666;7.146;2022-10-31T07:53:51;17.50;89.80
5226;DHT22;2632;51.666;7.146;2022-10-31T07:56:17;17.60;89.80
5226;DHT22;2632;51.666;7.146;2022-10-31T07:58:44;17.60;89.70
5226;DHT22;2632;51.666;7.146;2022-10-31T08:01:11;17.60;89.70
5226;DHT22;2632;51.666;7.146;2022-10-31T08:03:42;17.60;89.70
5226;DHT22;2632;51.666;7.146;2022-10-31T08:08:36;17.70;89.60
5226;DHT22;2632;51.666;7.146;2022-10-31T08:13:31;17.80;89.40
5226;DHT22;2632;51.666;7.146;2022-10-31T08:15:58;17.80;89.40
5226;DHT22;2632;51.666;7.146;2022-10-31T08:18:30;17.80;89.30
5226;DHT22;2632;51.666;7.146;2022-10-31T08:20:56;17.80;89.30
5226;DHT22;2632;51.666;7.146;2022-10-31T08:23:23;17.80;89.20
5226;DHT22;2632;51.666;7.146;2022-10-31T08:25:49;17.90;89.30
5226;DHT22;2632;51.666;7.146;2022-10-31T08:28:16;17.90;89.40
5226;DHT22;2632;51.666;7.146;2022-10-31T08:30:42;17.90;89.40
5226;DHT22;2632;51.666;7.146;2022-10-31T08:33:11;17.90;89.30
5226;DHT22;2632;51.666;7.146;2022-10-31T08:35:38;18.00;89.30
5226;DHT22;2632;51.666;7.146;2022-10-31T08:38:06;17.90;89.30
5226;DHT22;2632;51.666;7.146;2022-10-31T08:45:31;17.60;90.20
5226;DHT22;2632;51.666;7.146;2022-10-31T08:48:00;17.80;90.10
5226;DHT22;2632;51.666;7.146;2022-10-31T08:50:28;17.80;90.00
5226;DHT22;2632;51.666;7.146;2022-10-31T08:55:35;18.00;90.10
5226;DHT22;2632;51.666;7.146;2022-10-31T08:58:04;18.00;90.00
5226;DHT22;2632;51.666;7.146;2022-10-31T09:03:02;18.00;89.90
5226;DHT22;2632;51.666;7.146;2022-10-31T09:05:29;18.10;90.00
5226;DHT22;2632;51.666;7.146;2022-10-31T09:07:56;18.00;89.90
5226;DHT22;2632;51.666;7.146;2022-10-31T09:10:25;18.10;89.80
5226;DHT22;2632;51.666;7.146;2022-10-31T09:12:59;18.10;89.70
5226;DHT22;2632;51.666;7.146;2022-10-31T09:15:27;18.10;89.70
5226;DHT22;2632;51.666;7.146;2022-10-31T09:17:54;18.20;89.70
5226;DHT22;2632;51.666;7.146;2022-10-31T09:20:21;18.10;89.80
5226;DHT22;2632;51.666;7.146;2022-10-31T09:22:47;18.20;89.80
5226;DHT22;2632;51.666;7.146;2022-10-31T09:25:14;18.20;89.80
5226;DHT22;2632;51.666;7.146;2022-10-31T09:27:41;18.20;89.70
5226;DHT22;2632;51.666;7.146;2022-10-31T09:30:08;18.20;89.80
5226;DHT22;2632;51.666;7.146;2022-10-31T09:32:37;18.10;90.10
5226;DHT22;2632;51.666;7.146;2022-10-31T09:35:03;17.70;90.70
5226;DHT22;2632;51.666;7.146;2022-10-31T09:37:30;17.80;90.60
5226;DHT22;2632;51.666;7.146;2022-10-31T09:51:09;18.30;90.20
5226;DHT22;2632;51.666;7.146;2022-10-31T09:56:16;18.40;90.20
5226;DHT22;2632;51.666;7.146;2022-10-31T09:58:54;18.40;90.20
5226;DHT22;2632;51.666;7.146;2022-10-31T10:06:54;18.40;90.30
5226;DHT22;2632;51.666;7.146;2022-10-31T10:09:25;18.40;90.30
5226;DHT22;2632;51.666;7.146;2022-10-31T10:14:55;18.40;90.30
5226;DHT22;2632;51.666;7.146;2022-10-31T10:20:44;18.40;90.30
5226;DHT22;2632;51.666;7.146;2022-10-31T10:23:34;18.40;90.30
5226;DHT22;2632;51.666;7.146;2022-10-31T10:26:17;18.40;90.20
5226;DHT22;2632;51.666;7.146;2022-10-31T10:28:47;18.40;90.60
5226;DHT22;2632;51.666;7.146;2022-10-31T10:31:20;18.30;90.50
5226;DHT22;2632;51.666;7.146;2022-10-31T10:36:39;17.90;91.30
5226;DHT22;2632;51.666;7.146;2022-10-31T10:39:23;17.80;91.50
5226;DHT22;2632;51.666;7.146;2022-10-31T10:41:51;17.80;91.70
5226;DHT22;2632;51.666;7.146;2022-10-31T10:44:42;17.80;91.80
5226;DHT22;2632;51.666;7.146;2022-10-31T10:47:41;17.80;91.70
5226;DHT22;2632;51.666;7.146;2022-10-31T10:50:20;17.80;91.50
5226;DHT22;2632;51.666;7.146;2022-10-31T10:55:36;17.90;91.70
5226;DHT22;2632;51.666;7.146;2022-10-31T10:58:09;17.90;91.80
5226;DHT22;2632;51.666;7.146;2022-10-31T11:00:42;18.00;91.60
5226;DHT22;2632;51.666;7.146;2022-10-31T11:03:10;18.00;91.40
5226;DHT22;2632;51.666;7.146;2022-10-31T11:05:52;17.80;91.50
5226;DHT22;2632;51.666;7.146;2022-10-31T11:08:30;17.90;91.50
5226;DHT22;2632;51.666;7.146;2022-10-31T11:13:48;17.90;91.40
5226;DHT22;2632;51.666;7.146;2022-10-31T11:21:24;17.90;91.50
5226;DHT22;2632;51.666;7.146;2022-10-31T11:24:02;17.90;91.40
5226;DHT22;2632;51.666;7.146;2022-10-31T11:26:29;17.80;91.50
5226;DHT22;2632;51.666;7.146;2022-10-31T11:28:57;17.80;91.60
5226;DHT22;2632;51.666;7.146;2022-10-31T11:31:25;17.80;91.60
5226;DHT22;2632;51.666;7.146;2022-10-31T11:34:01;17.90;91.70
5226;DHT22;2632;51.666;7.146;2022-10-31T11:36:34;18.00;91.60
5226;DHT22;2632;51.666;7.146;2022-10-31T11:39:03;18.00;91.50
5226;DHT22;2632;51.666;7.146;2022-10-31T11:41:34;18.10;91.50
5226;DHT22;2632;51.666;7.146;2022-10-31T11:44:12;18.20;91.50
5226;DHT22;2632;51.666;7.146;2022-10-31T11:46:44;18.20;91.40
5226;DHT22;2632;51.666;7.146;2022-10-31T11:49:34;18.20;91.40
5226;DHT22;2632;51.666;7.146;2022-10-31T11:52:06;18.20;91.40
5226;DHT22;2632;51.666;7.146;2022-10-31T11:57:31;18.30;91.30
5226;DHT22;2632;51.666;7.146;2022-10-31T12:00:03;18.30;91.30
5226;DHT22;2632;51.666;7.146;2022-10-31T12:02:30;18.30;91.30
5226;DHT22;2632;51.666;7.146;2022-10-31T12:05:08;18.30;91.40
5226;DHT22;2632;51.666;7.146;2022-10-31T12:07:37;18.30;91.20
5226;DHT22;2632;51.666;7.146;2022-10-31T12:10:11;18.30;91.10
5226;DHT22;2632;51.666;7.146;2022-10-31T12:13:01;18.40;91.10
5226;DHT22;2632;51.666;7.146;2022-10-31T12:15:33;18.40;91.10
5226;DHT22;2632;51.666;7.146;2022-10-31T12:18:24;18.40;91.10
5226;DHT22;2632;51.666;7.146;2022-10-31T12:21:16;18.40;91.10
5226;DHT22;2632;51.666;7.146;2022-10-31T12:24:12;18.40;91.10
5226;DHT22;2632;51.666;7.146;2022-10-31T12:27:49;18.30;91.20
5226;DHT22;2632;51.666;7.146;2022-10-31T12:32:56;18.40;91.10
5226;DHT22;2632;51.666;7.146;2022-10-31T12:38:53;18.30;91.30
5226;DHT22;2632;51.666;7.146;2022-10-31T12:46:55;18.30;91.30
5226;DHT22;2632;51.666;7.146;2022-10-31T12:49:45;18.30;91.30
5226;DHT22;2632;51.666;7.146;2022-10-31T12:52:55;18.30;91.60
5226;DHT22;2632;51.666;7.146;2022-10-31T12:56:00;18.30;91.50
5226;DHT22;2632;51.666;7.146;2022-10-31T12:58:36;18.30;91.30
5226;DHT22;2632;51.666;7.146;2022-10-31T13:04:01;18.30;91.30
5226;DHT22;2632;51.666;7.146;2022-10-31T13:06:38;18.30;91.30
5226;DHT22;2632;51.666;7.146;2022-10-31T13:09:17;18.30;91.30
5226;DHT22;2632;51.666;7.146;2022-10-31T13:14:39;18.40;91.30
5226;DHT22;2632;51.666;7.146;2022-10-31T13:17:06;18.40;91.40
5226;DHT22;2632;51.666;7.146;2022-10-31T13:19:39;18.40;91.60
5226;DHT22;2632;51.666;7.146;2022-10-31T13:22:24;18.40;91.40
5226;DHT22;2632;51.666;7.146;2022-10-31T13:27:58;18.40;91.40
5226;DHT22;2632;51.666;7.146;2022-10-31T13:30:28;18.50;91.50
5226;DHT22;2632;51.666;7.146;2022-10-31T13:33:13;18.50;91.40
5226;DHT22;2632;51.666;7.146;2022-10-31T13:38:39;18.50;91.40
5226;DHT22;2632;51.666;7.146;2022-10-31T13:48:58;18.50;91.60
5226;DHT22;2632;51.666;7.146;2022-10-31T13:51:27;18.50;91.70
5226;DHT22;2632;51.666;7.146;2022-10-31T13:54:30;18.50;91.80
5226;DHT22;2632;51.666;7.146;2022-10-31T14:02:16;18.50;91.70
5226;DHT22;2632;51.666;7.146;2022-10-31T14:04:51;18.50;91.80
5226;DHT22;2632;51.666;7.146;2022-10-31T14:07:22;18.50;92.00
5226;DHT22;2632;51.666;7.146;2022-10-31T14:10:03;18.50;91.90
5226;DHT22;2632;51.666;7.146;2022-10-31T14:22:43;18.40;92.10
5226;DHT22;2632;51.666;7.146;2022-10-31T14:25:36;18.50;92.10
5226;DHT22;2632;51.666;7.146;2022-10-31T14:28:21;18.40;92.00
5226;DHT22;2632;51.666;7.146;2022-10-31T14:30:53;18.40;92.30
5226;DHT22;2632;51.666;7.146;2022-10-31T14:33:20;18.40;92.30
5226;DHT22;2632;51.666;7.146;2022-10-31T14:36:04;18.40;92.20
5226;DHT22;2632;51.666;7.146;2022-10-31T14:38:40;18.40;92.20
5226;DHT22;2632;51.666;7.146;2022-10-31T14:41:51;18.50;92.30
5226;DHT22;2632;51.666;7.146;2022-10-31T14:47:44;18.50;91.90
5226;DHT22;2632;51.666;7.146;2022-10-31T14:50:24;18.50;91.80
5226;DHT22;2632;51.666;7.146;2022-10-31T14:52:56;18.60;91.70
5226;DHT22;2632;51.666;7.146;2022-10-31T14:55:24;18.60;91.70
5226;DHT22;2632;51.666;7.146;2022-10-31T14:57:57;18.60;91.70
5226;DHT22;2632;51.666;7.146;2022-10-31T15:00:28;18.60;91.60
5226;DHT22;2632;51.666;7.146;2022-10-31T15:03:22;18.50;91.60
5226;DHT22;2632;51.666;7.146;2022-10-31T15:05:55;18.60;91.60
5226;DHT22;2632;51.666;7.146;2022-10-31T15:10:54;18.60;91.50
5226;DHT22;2632;51.666;7.146;2022-10-31T15:13:21;18.60;91.50
5226;DHT22;2632;51.666;7.146;2022-10-31T15:15:50;18.50;91.50
5226;DHT22;2632;51.666;7.146;2022-10-31T15:18:21;18.40;91.50
5226;DHT22;2632;51.666;7.146;2022-10-31T15:20:49;18.50;91.50
5226;DHT22;2632;51.666;7.146;2022-10-31T15:23:30;18.50;91.50
5226;DHT22;2632;51.666;7.146;2022-10-31T15:26:02;18.60;91.50
5226;DHT22;2632;51.666;7.146;2022-10-31T15:28:29;18.50;91.50
5226;DHT22;2632;51.666;7.146;2022-10-31T15:30:59;18.60;91.60
5226;DHT22;2632;51.666;7.146;2022-10-31T15:33:31;18.50;91.50
5226;DHT22;2632;51.666;7.146;2022-10-31T15:36:04;18.50;91.50
5226;DHT22;2632;51.666;7.146;2022-10-31T15:38:31;18.60;91.60
5226;DHT22;2632;51.666;7.146;2022-10-31T15:41:05;18.50;91.60
5226;DHT22;2632;51.666;7.146;2022-10-31T15:43:45;18.40;91.60
5226;DHT22;2632;51.666;7.146;2022-10-31T15:46:13;18.60;91.50
5226;DHT22;2632;51.666;7.146;2022-10-31T15:48:44;18.60;91.50
5226;DHT22;2632;51.666;7.146;2022-10-31T15:51:11;18.50;91.50
5226;DHT22;2632;51.666;7.146;2022-10-31T15:53:45;18.60;91.50
5226;DHT22;2632;51.666;7.146;2022-10-31T15:56:20;18.50;91.50
5226;DHT22;2632;51.666;7.146;2022-10-31T15:58:49;18.50;91.60
5226;DHT22;2632;51.666;7.146;2022-10-31T16:01:23;18.50;91.50
5226;DHT22;2632;51.666;7.146;2022-10-31T16:04:05;18.50;91.50
5226;DHT22;2632;51.666;7.146;2022-10-31T16:07:12;18.50;91.50
5226;DHT22;2632;51.666;7.146;2022-10-31T16:10:00;18.80;91.60
5226;DHT22;2632;51.666;7.146;2022-10-31T16:12:34;18.50;91.60
5226;DHT22;2632;51.666;7.146;2022-10-31T16:15:03;18.50;92.30
5226;DHT22;2632;51.666;7.146;2022-10-31T16:17:31;18.30;92.60
5226;DHT22;2632;51.666;7.146;2022-10-31T16:20:00;18.30;92.80
5226;DHT22;2632;51.666;7.146;2022-10-31T16:22:30;18.10;93.00
5226;DHT22;2632;51.666;7.146;2022-10-31T16:25:02;18.30;92.50
5226;DHT22;2632;51.666;7.146;2022-10-31T16:27:34;18.40;92.20
5226;DHT22;2632;51.666;7.146;2022-10-31T16:30:03;18.40;92.10
5226;DHT22;2632;51.666;7.146;2022-10-31T16:32:53;18.50;92.00
5226;DHT22;2632;51.666;7.146;2022-10-31T16:35:31;18.40;91.90
5226;DHT22;2632;51.666;7.146;2022-10-31T16:37:58;18.50;91.90
5226;DHT22;2632;51.666;7.146;2022-10-31T16:40:25;18.50;92.00
5226;DHT22;2632;51.666;7.146;2022-10-31T16:42:52;18.50;92.00
5226;DHT22;2632;51.666;7.146;2022-10-31T16:45:21;18.50;92.00
5226;DHT22;2632;51.666;7.146;2022-10-31T16:47:49;18.50;91.90
5226;DHT22;2632;51.666;7.146;2022-10-31T16:50:26;18.50;91.90
5226;DHT22;2632;51.666;7.146;2022-10-31T16:52:53;18.50;91.80
5226;DHT22;2632;51.666;7.146;2022-10-31T16:55:55;18.40;92.80
5226;DHT22;2632;51.666;7.146;2022-10-31T16:58:27;18.30;92.50
5226;DHT22;2632;51.666;7.146;2022-10-31T17:00:56;18.40;92.40
5226;DHT22;2632;51.666;7.146;2022-10-31T17:03:23;18.30;92.20
5226;DHT22;2632;51.666;7.146;2022-10-31T17:05:50;18.40;92.20
5226;DHT22;2632;51.666;7.146;2022-10-31T17:08:16;18.40;92.30
5226;DHT22;2632;51.666;7.146;2022-10-31T17:10:44;18.50;92.30
5226;DHT22;2632;51.666;7.146;2022-10-31T17:13:21;18.60;92.30
5226;DHT22;2632;51.666;7.146;2022-10-31T17:16:01;18.50;92.20
5226;DHT22;2632;51.666;7.146;2022-10-31T17:18:27;18.50;92.30
5226;DHT22;2632;51.666;7.146;2022-10-31T17:20:56;18.50;92.30
5226;DHT22;2632;51.666;7.146;2022-10-31T17:23:25;18.50;92.20
5226;DHT22;2632;51.666;7.146;2022-10-31T17:25:51;18.50;92.20
5226;DHT22;2632;51.666;7.146;2022-10-31T17:28:18;18.50;92.50
5226;DHT22;2632;51.666;7.146;2022-10-31T17:30:45;18.80;92.60
5226;DHT22;2632;51.666;7.146;2022-10-31T17:33:13;18.50;92.30
5226;DHT22;2632;51.666;7.146;2022-10-31T17:35:41;18.60;92.60
5226;DHT22;2632;51.666;7.146;2022-10-31T17:38:07;18.60;92.50
5226;DHT22;2632;51.666;7.146;2022-10-31T17:40:37;18.50;92.40
5226;DHT22;2632;51.666;7.146;2022-10-31T17:45:31;18.40;92.40
5226;DHT22;2632;51.666;7.146;2022-10-31T17:47:57;18.50;92.60
5226;DHT22;2632;51.666;7.146;2022-10-31T17:50:25;18.60;92.60
5226;DHT22;2632;51.666;7.146;2022-10-31T17:55:19;18.60;92.30
5226;DHT22;2632;51.666;7.146;2022-10-31T18:00:17;18.60;92.40
5226;DHT22;2632;51.666;7.146;2022-10-31T18:02:44;18.50;92.50
5226;DHT22;2632;51.666;7.146;2022-10-31T18:05:12;18.60;92.50
5226;DHT22;2632;51.666;7.146;2022-10-31T18:07:38;18.70;92.40
5226;DHT22;2632;51.666;7.146;2022-10-31T18:29:43;18.20;93.00
5226;DHT22;2632;51.666;7.146;2022-10-31T18:41:58;18.40;92.60
5226;DHT22;2632;51.666;7.146;2022-10-31T18:51:49;18.60;92.50
5226;DHT22;2632;51.666;7.146;2022-10-31T18:54:16;18.60;92.50
5226;DHT22;2632;51.666;7.146;2022-10-31T19:01:38;18.60;92.50
5226;DHT22;2632;51.666;7.146;2022-10-31T19:06:32;18.50;92.60
5226;DHT22;2632;51.666;7.146;2022-10-31T19:09:01;18.60;92.70
5226;DHT22;2632;51.666;7.146;2022-10-31T19:11:32;18.60;92.60
5226;DHT22;2632;51.666;7.146;2022-10-31T19:13:59;18.70;92.50
5226;DHT22;2632;51.666;7.146;2022-10-31T19:16:26;18.60;92.60
5226;DHT22;2632;51.666;7.146;2022-10-31T19:18:57;18.60;92.60
5226;DHT22;2632;51.666;7.146;2022-10-31T19:36:13;18.70;92.40
5226;DHT22;2632;51.666;7.146;2022-10-31T19:38:43;18.70;92.40
5226;DHT22;2632;51.666;7.146;2022-10-31T19:41:18;18.70;92.50
5226;DHT22;2632;51.666;7.146;2022-10-31T19:46:12;18.70;92.60
5226;DHT22;2632;51.666;7.146;2022-10-31T19:48:53;18.60;92.50
5226;DHT22;2632;51.666;7.146;2022-10-31T19:51:20;18.70;92.60
5226;DHT22;2632;51.666;7.146;2022-10-31T20:03:45;17.70;91.40
5226;DHT22;2632;51.666;7.146;2022-10-31T20:11:25;18.20;92.30
5226;DHT22;2632;51.666;7.146;2022-10-31T20:13:57;18.30;92.40
5226;DHT22;2632;51.666;7.146;2022-10-31T20:16:24;18.40;92.40
5226;DHT22;2632;51.666;7.146;2022-10-31T20:21:21;18.40;92.40
5226;DHT22;2632;51.666;7.146;2022-10-31T20:23:48;18.40;92.40